sensor_id;sensor_type;location;lat;lon;timestamp;pressure;altitude;pressure_sealevel;temperature;humidity
35758;BME280;21879;50.110;18.900;2023-01-28T00:06:10;99063.56;;;0.22;58.46
35758;BME280;21879;50.110;18.900;2023-01-28T00:16:38;99057.96;;;0.14;58.58
35758;BME280;21879;50.110;18.900;2023-01-28T00:27:06;99062.81;;;0.07;58.64
35758;BME280;21879;50.110;18.900;2023-01-28T00:37:34;99056.79;;;0.05;58.79
35758;BME280;21879;50.110;18.900;2023-01-28T00:48:02;99059.28;;;-0.01;59.09
35758;BME280;21879;50.110;18.900;2023-01-28T00:58:29;99056.70;;;-0.05;59.43
35758;BME280;21879;50.110;18.900;2023-01-28T01:08:57;99058.28;;;-0.09;59.33
35758;BME280;21879;50.110;18.900;2023-01-28T01:19:24;99063.02;;;-0.06;59.67
35758;BME280;21879;50.110;18.900;2023-01-28T01:29:53;99076.29;;;-0.08;59.81
35758;BME280;21879;50.110;18.900;2023-01-28T01:40:21;99078.84;;;-0.04;59.62
35758;BME280;21879;50.110;18.900;2023-01-28T01:50:52;99084.70;;;-0.07;59.72
35758;BME280;21879;50.110;18.900;2023-01-28T02:01:23;99088.36;;;-0.01;59.62
35758;BME280;21879;50.110;18.900;2023-01-28T02:11:54;99097.15;;;0.01;59.89
35758;BME280;21879;50.110;18.900;2023-01-28T02:22:37;99093.02;;;0.01;59.86
35758;BME280;21879;50.110;18.900;2023-01-28T02:33:13;99083.73;;;-0.01;59.95
35758;BME280;21879;50.110;18.900;2023-01-28T02:43:44;99083.64;;;0.01;60.38
35758;BME280;21879;50.110;18.900;2023-01-28T02:54:17;99095.05;;;0.00;60.09
35758;BME280;21879;50.110;18.900;2023-01-28T03:04:48;99091.24;;;-0.05;60.07
35758;BME280;21879;50.110;18.900;2023-01-28T03:15:23;99096.23;;;-0.05;60.47
35758;BME280;21879;50.110;18.900;2023-01-28T03:26:12;99089.69;;;-0.02;60.59
35758;BME280;21879;50.110;18.900;2023-01-28T03:36:59;99097.05;;;0.07;60.71
35758;BME280;21879;50.110;18.900;2023-01-28T03:47:28;99102.16;;;0.03;60.58
35758;BME280;21879;50.110;18.900;2023-01-28T03:57:56;99105.81;;;-0.05;60.53
35758;BME280;21879;50.110;18.900;2023-01-28T04:08:24;99108.63;;;-0.03;60.67
35758;BME280;21879;50.110;18.900;2023-01-28T04:18:52;99108.02;;;0.04;60.90
35758;BME280;21879;50.110;18.900;2023-01-28T04:29:19;99107.95;;;0.07;60.74
35758;BME280;21879;50.110;18.900;2023-01-28T04:39:47;99105.75;;;-0.02;60.80
35758;BME280;21879;50.110;18.900;2023-01-28T04:50:15;99115.52;;;-0.06;60.96
35758;BME280;21879;50.110;18.900;2023-01-28T05:00:42;99119.30;;;-0.10;61.00
35758;BME280;21879;50.110;18.900;2023-01-28T05:11:10;99137.14;;;0.14;61.19
35758;BME280;21879;50.110;18.900;2023-01-28T05:21:38;99139.13;;;0.39;61.05
35758;BME280;21879;50.110;18.900;2023-01-28T05:32:06;99134.34;;;0.44;60.60
35758;BME280;21879;50.110;18.900;2023-01-28T05:42:33;99150.41;;;0.35;60.38
35758;BME280;21879;50.110;18.900;2023-01-28T05:53:01;99158.02;;;0.23;60.63
35758;BME280;21879;50.110;18.900;2023-01-28T06:03:31;99172.10;;;0.16;60.72
35758;BME280;21879;50.110;18.900;2023-01-28T06:13:59;99188.14;;;0.11;60.56
35758;BME280;21879;50.110;18.900;2023-01-28T06:24:26;99203.23;;;0.16;60.89
35758;BME280;21879;50.110;18.900;2023-01-28T06:34:54;99213.69;;;0.21;60.73
35758;BME280;21879;50.110;18.900;2023-01-28T06:45:22;99223.36;;;0.24;60.94
35758;BME280;21879;50.110;18.900;2023-01-28T06:55:50;99230.59;;;0.16;60.72
35758;BME280;21879;50.110;18.900;2023-01-28T07:06:17;99237.74;;;0.16;60.81
35758;BME280;21879;50.110;18.900;2023-01-28T07:16:45;99240.83;;;0.11;60.74
35758;BME280;21879;50.110;18.900;2023-01-28T07:27:13;99254.18;;;0.21;60.99
35758;BME280;21879;50.110;18.900;2023-01-28T07:37:41;99256.69;;;0.28;61.01
35758;BME280;21879;50.110;18.900;2023-01-28T07:48:11;99259.73;;;0.39;60.87
35758;BME280;21879;50.110;18.900;2023-01-28T07:58:38;99268.60;;;0.43;60.97
35758;BME280;21879;50.110;18.900;2023-01-28T08:09:07;99272.45;;;0.37;60.93
35758;BME280;21879;50.110;18.900;2023-01-28T08:19:34;99278.14;;;0.42;60.90
35758;BME280;21879;50.110;18.900;2023-01-28T08:30:02;99286.66;;;0.41;60.91
35758;BME280;21879;50.110;18.900;2023-01-28T08:40:30;99288.05;;;0.50;61.24
35758;BME280;21879;50.110;18.900;2023-01-28T08:51:00;99296.35;;;0.35;60.59
35758;BME280;21879;50.110;18.900;2023-01-28T09:01:27;99301.64;;;0.35;60.75
35758;BME280;21879;50.110;18.900;2023-01-28T09:11:55;99308.92;;;0.42;61.00
35758;BME280;21879;50.110;18.900;2023-01-28T09:22:23;99308.54;;;0.28;60.69
35758;BME280;21879;50.110;18.900;2023-01-28T09:32:52;99318.05;;;0.22;60.75
35758;BME280;21879;50.110;18.900;2023-01-28T09:43:35;99316.42;;;0.24;60.97
35758;BME280;21879;50.110;18.900;2023-01-28T09:54:17;99316.34;;;0.39;61.28
35758;BME280;21879;50.110;18.900;2023-01-28T10:04:55;99312.42;;;0.44;60.68
35758;BME280;21879;50.110;18.900;2023-01-28T10:15:46;99304.55;;;0.48;60.72
35758;BME280;21879;50.110;18.900;2023-01-28T10:26:22;99302.06;;;0.41;60.84
35758;BME280;21879;50.110;18.900;2023-01-28T10:36:50;99304.36;;;0.43;60.66
35758;BME280;21879;50.110;18.900;2023-01-28T10:47:26;99310.70;;;0.35;60.39
35758;BME280;21879;50.110;18.900;2023-01-28T10:57:56;99313.66;;;0.32;60.59
35758;BME280;21879;50.110;18.900;2023-01-28T11:08:25;99310.52;;;0.35;60.48
35758;BME280;21879;50.110;18.900;2023-01-28T11:18:56;99309.48;;;0.31;60.39
35758;BME280;21879;50.110;18.900;2023-01-28T11:29:31;99302.66;;;0.27;60.46
35758;BME280;21879;50.110;18.900;2023-01-28T11:40:08;99298.17;;;0.34;60.77
35758;BME280;21879;50.110;18.900;2023-01-28T11:50:51;99295.58;;;0.50;60.56
35758;BME280;21879;50.110;18.900;2023-01-28T12:01:30;99288.77;;;0.51;59.86
35758;BME280;21879;50.110;18.900;2023-01-28T12:12:10;99285.90;;;0.61;59.95
35758;BME280;21879;50.110;18.900;2023-01-28T12:33:53;99275.86;;;0.80;60.02
35758;BME280;21879;50.110;18.900;2023-01-28T12:44:30;99275.08;;;0.78;59.90
35758;BME280;21879;50.110;18.900;2023-01-28T12:55:02;99283.69;;;0.79;60.18
35758;BME280;21879;50.110;18.900;2023-01-28T13:05:36;99293.23;;;0.73;60.50
35758;BME280;21879;50.110;18.900;2023-01-28T13:16:08;99296.42;;;0.85;60.53
35758;BME280;21879;50.110;18.900;2023-01-28T13:26:44;99301.63;;;1.05;60.71
35758;BME280;21879;50.110;18.900;2023-01-28T13:37:26;99310.55;;;1.28;60.51
35758;BME280;21879;50.110;18.900;2023-01-28T13:48:00;99313.16;;;1.39;60.17
35758;BME280;21879;50.110;18.900;2023-01-28T13:59:03;99321.07;;;1.25;59.93
35758;BME280;21879;50.110;18.900;2023-01-28T14:09:57;99324.27;;;1.06;60.01
35758;BME280;21879;50.110;18.900;2023-01-28T14:20:33;99327.78;;;1.08;60.28
35758;BME280;21879;50.110;18.900;2023-01-28T14:31:06;99336.90;;;1.23;60.46
35758;BME280;21879;50.110;18.900;2023-01-28T14:41:37;99337.58;;;1.50;60.53
35758;BME280;21879;50.110;18.900;2023-01-28T14:52:20;99335.07;;;1.38;60.03
35758;BME280;21879;50.110;18.900;2023-01-28T15:02:51;99348.45;;;1.34;60.28
35758;BME280;21879;50.110;18.900;2023-01-28T15:13:29;99357.44;;;1.55;60.65
35758;BME280;21879;50.110;18.900;2023-01-28T15:24:00;99360.92;;;1.56;60.52
35758;BME280;21879;50.110;18.900;2023-01-28T15:34:28;99369.58;;;1.68;60.48
35758;BME280;21879;50.110;18.900;2023-01-28T15:44:56;99375.78;;;1.92;60.62
35758;BME280;21879;50.110;18.900;2023-01-28T15:55:35;99384.35;;;2.17;60.34
35758;BME280;21879;50.110;18.900;2023-01-28T16:06:04;99399.62;;;2.22;59.91
35758;BME280;21879;50.110;18.900;2023-01-28T16:16:36;99404.13;;;2.18;59.96
35758;BME280;21879;50.110;18.900;2023-01-28T16:27:17;99406.10;;;2.01;59.91
35758;BME280;21879;50.110;18.900;2023-01-28T16:37:46;99409.92;;;1.93;59.91
35758;BME280;21879;50.110;18.900;2023-01-28T16:48:14;99412.07;;;1.91;60.29
35758;BME280;21879;50.110;18.900;2023-01-28T16:58:42;99419.65;;;1.77;60.56
35758;BME280;21879;50.110;18.900;2023-01-28T17:09:12;99422.69;;;1.67;61.04
35758;BME280;21879;50.110;18.900;2023-01-28T17:19:40;99430.61;;;1.54;61.17
35758;BME280;21879;50.110;18.900;2023-01-28T17:30:10;99432.72;;;1.55;61.39
35758;BME280;21879;50.110;18.900;2023-01-28T17:40:38;99438.46;;;1.49;62.00
35758;BME280;21879;50.110;18.900;2023-01-28T17:51:06;99451.45;;;1.44;62.62
35758;BME280;21879;50.110;18.900;2023-01-28T18:01:34;99455.98;;;1.45;63.68
35758;BME280;21879;50.110;18.900;2023-01-28T18:12:02;99465.85;;;1.75;63.82
35758;BME280;21879;50.110;18.900;2023-01-28T18:22:30;99470.48;;;1.88;64.26
35758;BME280;21879;50.110;18.900;2023-01-28T18:32:58;99471.05;;;2.09;64.19
35758;BME280;21879;50.110;18.900;2023-01-28T18:43:25;99478.02;;;2.21;64.35
35758;BME280;21879;50.110;18.900;2023-01-28T18:53:56;99473.06;;;2.17;64.24
35758;BME280;21879;50.110;18.900;2023-01-28T19:04:24;99474.46;;;2.18;64.65
35758;BME280;21879;50.110;18.900;2023-01-28T19:14:51;99483.48;;;2.39;65.36
35758;BME280;21879;50.110;18.900;2023-01-28T19:25:19;99476.85;;;2.66;64.96
35758;BME280;21879;50.110;18.900;2023-01-28T19:35:47;99490.30;;;2.88;65.19
35758;BME280;21879;50.110;18.900;2023-01-28T19:46:20;99493.12;;;2.90;64.90
35758;BME280;21879;50.110;18.900;2023-01-28T19:56:48;99493.19;;;2.97;64.83
35758;BME280;21879;50.110;18.900;2023-01-28T20:07:15;99500.86;;;2.90;64.73
35758;BME280;21879;50.110;18.900;2023-01-28T20:17:43;99505.16;;;2.85;65.08
35758;BME280;21879;50.110;18.900;2023-01-28T20:28:11;99514.56;;;2.99;65.13
35758;BME280;21879;50.110;18.900;2023-01-28T20:38:40;99521.33;;;3.01;64.73
35758;BME280;21879;50.110;18.900;2023-01-28T20:49:09;99520.42;;;2.80;64.36
35758;BME280;21879;50.110;18.900;2023-01-28T20:59:37;99531.27;;;2.18;64.21
35758;BME280;21879;50.110;18.900;2023-01-28T21:10:05;99536.52;;;1.84;64.40
35758;BME280;21879;50.110;18.900;2023-01-28T21:20:34;99539.48;;;1.64;64.82
35758;BME280;21879;50.110;18.900;2023-01-28T21:31:09;99547.14;;;1.58;65.40
35758;BME280;21879;50.110;18.900;2023-01-28T21:41:37;99561.20;;;1.50;65.66
35758;BME280;21879;50.110;18.900;2023-01-28T21:52:04;99574.26;;;1.37;65.40
35758;BME280;21879;50.110;18.900;2023-01-28T22:02:32;99577.12;;;1.28;65.48
35758;BME280;21879;50.110;18.900;2023-01-28T22:13:02;99573.16;;;1.23;65.16
35758;BME280;21879;50.110;18.900;2023-01-28T22:23:29;99569.04;;;1.15;65.11
35758;BME280;21879;50.110;18.900;2023-01-28T22:33:57;99563.79;;;1.04;65.16
35758;BME280;21879;50.110;18.900;2023-01-28T22:44:25;99577.08;;;1.02;64.92
35758;BME280;21879;50.110;18.900;2023-01-28T22:54:52;99588.56;;;0.90;64.38
35758;BME280;21879;50.110;18.900;2023-01-28T23:05:20;99589.84;;;0.84;64.05
35758;BME280;21879;50.110;18.900;2023-01-28T23:15:49;99587.63;;;1.05;64.08
35758;BME280;21879;50.110;18.900;2023-01-28T23:26:34;99585.45;;;1.02;63.94
35758;BME280;21879;50.110;18.900;2023-01-28T23:37:02;99578.84;;;0.91;64.06
35758;BME280;21879;50.110;18.900;2023-01-28T23:47:31;99574.84;;;0.70;64.31
35758;BME280;21879;50.110;18.900;2023-01-28T23:57:58;99569.85;;;0.54;64.56
